Etusivu
METAR-TAF:

METAR-TAF

Lentoasemat :

Southwest Minnesota Regional Airport (Marshall/Ryan Field)

Marshall, Minnesota, Yhdysvallat

Leveyspiiri: 44-27N, Pituuspiiri: 095-49W, korkeus merenpinnasta: 359 m

Tämänhetkinen sää

Tämä raportti tehtiin 1 tunti ja 0 minuuttia sitten, kello 09.56 UTC
Tuuli 6 kn idästä/kaakosta
Lämpötila -7°C
Kosteus 93%
Ilmanpaine 1010 hPa
Näkyvyys: 14.5 km
Pilvistä 500 ft:n korkeudessa

METAR: KMML 170956Z AUTO 11006KT 9SM OVC005 M07/M08 A2982 RMK AO2 SLP119 T10671078 FZRANO

Aika: 04:56 (10:56 UTC)


TAF: puuttuu

Säähavainnot ja -ennusteet yli 4000 lentoasemalta (METAR- ja TAF-raportit).

Käytössä olevat sääasemat on merkitty karttaan keltaisilla ja punaisilla pisteillä.

Aseta hiiri pisteen päälle nähdäksesi sääaseman nimen.

Klikkaa sitten nähdäksesi säähavainnot ja -ennusteet.

Kartan vaihtaminen: klikkaa mustalla rastilla varustettuja vihreitä pisteitä, niin voit zoomata sisään; viivalla varustettua vihreää pistettä, niin voit zoomata ulos tai vihreitä nuolia, niin pääset viereisille kartoille.


METAR-TAF: